Latest Weather Observations for Toowoomba

IDQ60801

Issued at 7:02 am EST Wednesday 23 January 2019 (issued every 10 minutes, with the page automatically refreshed every 10 minutes)

About weather observations | Map of weather stations | Latest weather observations for QLD | Other Formats
Station Details ID: 041529 Name: TOOWOOMBA AIRPORT Lat: -27.54 Lon: 151.91 Height: 640.9 m
Data from the previous 72 hours. | See also: Recent months at Toowoomba
Date/Time
EST
Temp
°C
App
Temp
°C
Dew
Point
°C
Rel
Hum
%
Delta-T
°C
Wind Press
QNH
hPa
Press
MSL
hPa
Rain since
9am
mm
Dir  Spd
km/h
Gust
km/h
Spd
kts
Gust
kts
23/07:00am 20.5 20.6 17.5 83 1.9 NNE 13 19 7 10 1018.2 1014.5 0.0
23/06:30am 19.6 20.3 17.9 90 1.1 NNE 11 15 6 8 1018.1 1014.4 0.0
23/06:00am 19.0 19.3 18.0 94 0.6 NNE 13 17 7 9 1017.8 1014.1 0.0
23/05:30am 18.0 19.3 17.5 97 0.3 E 7 9 4 5 1017.6 1013.9 0.0
23/05:00am 18.3 19.3 17.7 96 0.4 NE 9 15 5 8 1017.2 1013.4 0.0
23/04:30am 18.6 19.3 17.9 96 0.4 NE 11 15 6 8 1016.9 1013.1 0.0
23/04:00am 18.6 20.1 18.1 97 0.3 NE 7 9 4 5 1017.2 1013.4 0.0
23/03:30am 18.7 20.0 18.5 99 0.1 E 9 11 5 6 1017.2 1013.4 0.0
23/03:00am 18.9 19.8 18.4 97 0.3 NE 11 13 6 7 1017.1 1013.3 0.0
23/02:30am 19.0 20.9 18.5 97 0.3 E 6 9 3 5 1017.3 1013.6 0.0
23/02:00am 19.2 19.8 18.5 96 0.4 ENE 13 19 7 10 1017.2 1013.4 0.0
23/01:30am 19.5 19.0 18.7 95 0.5 ENE 19 24 10 13 1017.4 1013.7 0.0
23/01:00am 19.8 19.6 18.5 92 0.8 ENE 17 24 9 13 1017.9 1014.2 0.0
23/12:30am 20.0 20.2 18.5 91 1.0 ENE 15 20 8 11 1018.2 1014.5 0.0
23/12:00am 20.3 18.8 18.6 90 1.1 ENE 24 32 13 17 1018.1 1014.4 0.0
 
Date/Time
EST
Temp
°C
App
Temp
°C
Dew
Point
°C
Rel
Hum
%
Delta-T
°C
Wind Press
QNH
hPa
Press
MSL
hPa
Rain since
9am
mm
Dir  Spd
km/h
Gust
km/h
Spd
kts
Gust
kts
22/11:30pm 20.4 18.2 18.7 90 1.1 ENE 28 35 15 19 1018.0 1014.3 0.0
22/11:00pm 20.8 18.7 18.9 89 1.2 ENE 28 33 15 18 1018.7 1015.0 0.0
22/10:30pm 21.1 18.3 19.0 88 1.4 E 32 39 17 21 1019.2 1015.5 0.0
22/10:00pm 21.5 19.3 18.7 84 1.8 E 28 35 15 19 1019.7 1016.0 0.0
22/09:30pm 22.1 20.2 18.5 80 2.3 E 26 33 14 18 1020.1 1016.5 0.0
22/09:00pm 22.8 20.6 17.9 74 3.1 E 26 33 14 18 1019.9 1016.2 0.0
22/08:30pm 23.5 20.7 17.3 68 3.9 E 28 35 15 19 1019.7 1016.0 0.0
22/08:00pm 24.3 21.8 17.1 64 4.6 E 26 32 14 17 1019.5 1015.8 0.0
22/07:30pm 25.0 22.9 17.2 62 5.0 E 24 33 13 18 1019.2 1015.5 0.0
22/07:00pm 25.8 22.8 16.9 58 5.7 E 28 37 15 20 1018.8 1015.1 0.0
22/06:30pm 27.1 23.9 16.4 52 6.8 E 28 35 15 19 1018.3 1014.6 0.0
22/06:00pm 28.2 24.5 16.1 47 7.7 E 30 37 16 20 1018.0 1014.3 0.0
22/05:30pm 29.5 26.2 16.0 44 8.6 E 28 39 15 21 1017.7 1014.0 0.0
22/05:00pm 30.1 26.9 15.4 41 9.3 E 26 37 14 20 1017.3 1013.6 0.0
22/04:30pm 30.2 26.9 15.1 40 9.5 ESE 26 41 14 22 1017.1 1013.3 0.0
22/04:00pm 30.8 27.7 15.6 39 9.6 ESE 26 37 14 20 1017.1 1013.3 0.0
22/03:30pm 30.5 27.9 15.0 39 9.7 ESE 22 33 12 18 1017.3 1013.6 0.0
22/03:00pm 30.2 27.7 15.1 40 9.5 E 22 32 12 17 1017.4 1013.7 0.0
22/02:30pm 30.4 27.6 15.3 40 9.5 E 24 33 13 18 1017.8 1014.1 0.0
22/02:00pm 30.2 28.0 15.9 42 9.1 E 22 32 12 17 1018.2 1014.5 0.0
22/01:30pm 30.5 28.7 15.4 40 9.5 ENE 19 30 10 16 1018.6 1014.8 0.0
22/01:00pm 30.0 28.5 15.3 41 9.3 E 17 30 9 16 1019.0 1015.3 0.0
22/12:30pm 29.1 26.8 15.6 44 8.5 E 22 32 12 17 1019.4 1015.7 0.0
22/12:00pm 28.5 26.7 16.1 47 7.9 E 20 33 11 18 1019.9 1016.2 0.0
22/11:30am 27.7 25.9 16.0 49 7.4 ESE 20 32 11 17 1020.4 1016.7 0.0
22/11:00am 27.1 25.4 15.8 50 7.1 ENE 19 30 10 16 1020.5 1016.8 0.0
22/10:30am 26.3 24.0 15.7 52 6.6 ENE 22 32 12 17 1020.8 1017.1 0.0
22/10:00am 25.5 22.8 15.5 54 6.2 E 24 35 13 19 1020.9 1017.2 0.0
22/09:30am 24.7 22.5 15.9 58 5.5 E 22 28 12 15 1020.9 1017.2 0.0
22/09:00am 23.3 20.9 16.4 65 4.3 E 24 33 13 18 1020.8 1017.1 0.0
22/08:30am 22.8 20.9 16.8 69 3.8 ENE 22 30 12 16 1020.9 1017.2 0.0
22/08:15am 22.2 20.9 17.3 74 3.1 E 20 28 11 15 1020.9 1017.2 0.0
22/08:01am 21.9 21.4 17.7 77 2.7 E 17 22 9 12 1020.9 1017.2 0.0
22/08:00am 21.9 21.4 17.9 78 2.5 E 17 22 9 12 1020.9 1017.2 0.0
22/07:50am 20.7 19.5 17.1 80 2.3 E 19 24 10 13 1020.9 1017.2 0.0
22/07:47am 20.8 19.5 17.2 80 2.3 E 20 26 11 14 1020.8 1017.1 0.0
22/07:30am 20.9 20.3 17.5 81 2.1 E 17 22 9 12 1020.8 1017.1 0.0
22/07:00am 20.0 19.6 18.1 89 1.2 E 17 22 9 12 1020.7 1017.0 0.0
22/06:30am 19.2 18.4 18.0 93 0.8 ENE 19 24 10 13 1020.4 1016.7 0.0
22/06:00am 19.0 18.7 18.3 96 0.4 ENE 17 22 9 12 1020.1 1016.5 0.0
22/05:30am 19.0 18.3 18.2 95 0.5 ENE 19 28 10 15 1020.0 1016.4 0.0
22/05:00am 19.2 18.4 18.5 96 0.4 ENE 20 28 11 15 1019.8 1016.1 0.0
22/04:30am 19.3 19.0 19.1 99 0.1 E 19 24 10 13 1019.6 1015.9 0.0
22/04:25am 19.2 18.7 19.0 99 0.1 ENE 20 28 11 15 1019.6 1015.9 0.0
22/04:06am 19.1 18.5 18.9 99 0.1 ENE 20 28 11 15 1019.5 1015.8 0.0
22/04:00am 19.1 18.5 18.9 99 0.1 ENE 20 24 11 13 1019.4 1015.7 0.0
22/03:30am 19.2 17.1 19.0 99 0.1 ENE 28 39 15 21 1019.0 1015.3 0.0
22/03:00am 19.2 15.8 19.0 99 0.1 E 35 48 19 26 1018.7 1015.0 0.0
22/02:30am 19.4 15.6 18.9 97 0.3 E 37 46 20 25 1018.7 1015.0 0.0
22/02:00am 19.3 15.4 18.8 97 0.3 E 37 46 20 25 1018.8 1015.1 0.0
22/01:30am 19.3 15.8 18.8 97 0.3 E 35 46 19 25 1019.0 1015.3 0.0
22/01:00am 19.4 14.7 18.6 95 0.5 E 41 50 22 27 1019.1 1015.4 0.0
22/12:40am 19.5 15.1 18.5 94 0.6 E 39 48 21 26 1019.4 1015.7 0.0
22/12:30am 19.5 14.7 18.3 93 0.8 E 41 50 22 27 1019.4 1015.7 0.0
22/12:00am 19.7 14.3 17.8 89 1.2 E 43 50 23 27 1019.8 1016.1 0.0
 
Date/Time
EST
Temp
°C
App
Temp
°C
Dew
Point
°C
Rel
Hum
%
Delta-T
°C
Wind Press
QNH
hPa
Press
MSL
hPa
Rain since
9am
mm
Dir  Spd
km/h
Gust
km/h
Spd
kts
Gust
kts
21/11:30pm 19.9 15.1 17.5 86 1.5 E 39 46 21 25 1020.4 1016.7 0.0
21/11:00pm 20.3 15.0 17.3 83 1.9 E 41 50 22 27 1020.8 1017.1 0.0
21/10:30pm 20.5 15.2 17.3 82 2.0 E 41 50 22 27 1021.1 1017.4 0.0
21/10:00pm 20.7 15.6 17.7 83 1.9 E 41 54 22 29 1021.3 1017.6 0.0
21/09:30pm 21.3 17.2 17.3 78 2.5 E 35 43 19 23 1021.2 1017.5 0.0
21/09:00pm 21.7 17.2 17.3 76 2.8 E 37 48 20 26 1020.8 1017.1 0.0
21/08:30pm 22.2 18.2 17.6 75 2.9 E 35 44 19 24 1020.9 1017.2 0.0
21/08:00pm 23.0 19.6 17.7 72 3.4 E 32 43 17 23 1020.5 1016.8 0.0
21/07:30pm 23.8 20.0 17.3 67 4.1 E 33 46 18 25 1019.9 1016.2 0.0
21/07:00pm 25.0 21.2 16.7 60 5.2 E 32 41 17 22 1019.4 1015.7 0.0
21/06:30pm 26.2 22.6 16.2 54 6.3 E 30 39 16 21 1019.3 1015.6 0.0
21/06:00pm 27.3 23.7 15.3 48 7.5 E 28 37 15 20 1018.9 1015.2 0.0
21/05:30pm 28.5 25.0 15.4 45 8.2 E 28 35 15 19 1018.6 1014.8 0.0
21/05:00pm 29.0 24.9 14.8 42 8.8 E 30 39 16 21 1018.1 1014.4 0.0
21/04:30pm 30.2 26.4 13.5 36 10.3 ESE 26 33 14 18 1018.0 1014.3 0.0
21/04:00pm 30.2 25.9 14.3 38 9.9 ESE 30 43 16 23 1017.8 1014.1 0.0
21/03:30pm 30.3 27.2 14.4 38 9.9 E 24 39 13 21 1017.9 1014.2 0.0
21/03:00pm 30.7 27.3 14.8 38 10.0 ENE 26 37 14 20 1018.1 1014.4 0.0
21/02:30pm 30.3 27.2 14.4 38 9.9 E 24 33 13 18 1018.4 1014.7 0.0
21/02:00pm 30.8 28.2 14.8 37 10.0 E 22 46 12 25 1018.6 1014.8 0.0
21/01:30pm 28.9 26.3 13.9 39 9.2 E 20 32 11 17 1019.3 1015.6 0.0
21/01:00pm 29.4 26.9 15.1 41 9.0 E 22 32 12 17 1019.5 1015.8 0.0
21/12:30pm 29.2 27.1 15.3 42 8.7 ESE 20 33 11 18 1019.8 1016.1 0.0
21/12:00pm 28.8 26.8 16.4 47 7.9 E 22 32 12 17 1020.0 1016.4 0.0
21/11:30am 27.0 24.2 15.4 49 7.2 ENE 24 32 13 17 1020.5 1016.8 0.0
21/11:00am 26.6 24.6 16.5 54 6.4 ESE 22 37 12 20 1020.6 1016.9 0.0
21/10:30am 26.4 22.2 16.3 53 6.4 E 33 43 18 23 1020.3 1016.6 0.0
21/10:00am 25.2 21.2 16.6 59 5.4 E 33 44 18 24 1020.1 1016.5 0.0
21/09:30am 25.0 22.1 17.0 61 5.1 E 28 37 15 20 1020.6 1016.9 0.0
21/09:00am 23.2 20.2 16.7 67 4.1 E 28 39 15 21 1020.8 1017.1 0.0
21/08:49am 23.3 20.2 17.5 70 3.7 E 30 37 16 20 1020.8 1017.1 0.0
21/08:30am 22.6 20.3 17.7 74 3.1 E 26 33 14 18 1021.0 1017.3 0.0
21/08:11am 21.7 19.5 17.9 79 2.4 E 26 35 14 19 1020.9 1017.2 0.0
21/08:08am 21.7 19.6 18.1 80 2.3 E 26 37 14 20 1020.8 1017.1 0.0
21/08:00am 21.5 18.7 18.3 82 2.0 E 30 41 16 22 1020.6 1016.9 0.0
21/07:30am 20.9 18.5 18.3 85 1.7 E 28 35 15 19 1020.4 1016.7 0.0
21/07:00am 20.2 17.3 18.9 92 0.8 E 32 41 17 22 1020.0 1016.4 0.0
21/06:30am 19.8 17.8 19.1 96 0.5 E 28 37 15 20 1019.9 1016.2 0.0
21/06:00am 19.5 16.7 19.0 97 0.3 E 32 43 17 23 1019.6 1015.9 0.0
21/05:30am 19.5 17.3 18.8 96 0.4 E 28 35 15 19 1019.7 1016.0 0.0
21/05:00am 19.7 17.8 18.5 93 0.8 E 26 35 14 19 1019.5 1015.8 0.0
21/04:30am 19.6 17.4 18.6 94 0.6 E 28 35 15 19 1019.3 1015.6 0.0
21/04:00am 19.8 17.8 18.3 91 1.0 E 26 35 14 19 1019.1 1015.4 0.0
21/03:30am 19.8 17.7 18.1 90 1.1 E 26 33 14 18 1019.0 1015.3 0.0
21/03:12am 19.8 18.4 17.9 89 1.2 E 22 30 12 16 1019.2 1015.5 0.0
21/03:00am 19.8 18.4 17.9 89 1.2 E 22 30 12 16 1019.0 1015.3 0.0
21/02:30am 19.9 17.7 17.9 88 1.3 E 26 32 14 17 1019.1 1015.4 0.0
21/02:07am 20.0 17.8 17.8 87 1.4 E 26 33 14 18 1019.5 1015.8 0.0
21/02:00am 20.1 18.2 17.7 86 1.5 E 24 33 13 18 1019.6 1015.9 0.0
21/01:30am 20.2 18.7 17.8 86 1.5 E 22 32 12 17 1020.1 1016.5 0.0
21/01:00am 20.3 18.9 17.9 86 1.5 E 22 28 12 15 1020.3 1016.6 0.0
21/12:59am 20.3 19.0 18.1 87 1.4 E 22 28 12 15 1020.3 1016.6 0.0
21/12:30am 20.1 18.3 17.9 87 1.4 E 24 30 13 16 1020.3 1016.6 0.0
21/12:00am 20.3 17.7 17.9 86 1.5 E 28 35 15 19 1020.4 1016.7 0.0
 
Date/Time
EST
Temp
°C
App
Temp
°C
Dew
Point
°C
Rel
Hum
%
Delta-T
°C
Wind Press
QNH
hPa
Press
MSL
hPa
Rain since
9am
mm
Dir  Spd
km/h
Gust
km/h
Spd
kts
Gust
kts
20/11:30pm 20.5 18.2 17.7 84 1.8 E 26 35 14 19 1020.8 1017.1 0.0
20/11:00pm 20.6 18.6 17.4 82 2.0 E 24 32 13 17 1020.9 1017.2 0.0
20/10:30pm 20.9 18.6 17.5 81 2.1 E 26 35 14 19 1021.0 1017.3 0.0
20/10:00pm 21.2 18.8 17.4 79 2.4 E 26 35 14 19 1021.2 1017.5 0.0
20/09:30pm 21.7 19.3 17.3 76 2.8 E 26 33 14 18 1021.2 1017.5 0.0
20/09:00pm 22.2 18.6 17.1 73 3.2 E 32 39 17 21 1020.8 1017.1 0.0
20/08:30pm 22.9 17.9 17.1 70 3.7 E 39 48 21 26 1020.3 1016.6 0.0
20/08:00pm 23.6 19.7 16.9 66 4.2 E 33 43 18 23 1020.1 1016.5 0.0
20/07:30pm 24.3 20.9 16.8 63 4.7 E 30 37 16 20 1019.8 1016.1 0.0
20/07:00pm 26.0 22.6 16.8 57 5.8 E 30 39 16 21 1019.6 1015.9 0.0
20/06:30pm 27.7 24.3 15.7 48 7.5 E 28 37 15 20 1019.2 1015.5 0.0
20/06:00pm 29.0 25.4 15.2 43 8.6 E 28 35 15 19 1018.8 1015.1 0.0
20/05:30pm 29.0 24.6 14.0 39 9.2 E 30 39 16 21 1018.6 1014.8 0.0
20/05:00pm 29.8 24.8 12.3 34 10.5 ESE 30 41 16 22 1018.3 1014.6 0.0
20/04:30pm 30.7 25.7 11.1 30 11.6 E 28 37 15 20 1018.3 1014.6 0.0
20/04:00pm 31.7 26.2 12.0 30 11.9 ESE 32 41 17 22 1018.1 1014.4 0.0
20/03:30pm 32.0 26.5 11.7 28 12.2 E 32 39 17 21 1018.3 1014.6 0.0
20/03:00pm 31.7 26.6 13.0 32 11.4 E 32 43 17 23 1018.8 1015.1 0.0
20/02:30pm 31.3 26.7 12.2 31 11.5 E 28 39 15 21 1019.2 1015.5 0.0
20/02:00pm 31.1 26.6 12.5 32 11.3 E 28 37 15 20 1019.5 1015.8 0.0
20/01:30pm 31.4 27.4 14.1 35 10.8 E 28 39 15 21 1019.9 1016.2 0.0
20/01:00pm 30.1 25.6 13.8 37 10.0 E 30 41 16 22 1020.1 1016.5 0.0
20/12:30pm 29.4 25.0 15.1 41 9.0 E 32 41 17 22 1020.6 1016.9 0.0
20/12:00pm 28.9 24.6 15.8 45 8.3 E 33 44 18 24 1020.9 1017.2 0.0
20/11:30am 28.5 23.0 15.8 46 8.0 E 39 50 21 27 1021.0 1017.3 0.0
20/11:00am 26.7 21.1 16.6 54 6.4 E 41 50 22 27 1021.1 1017.4 0.0
20/10:30am 25.8 20.2 17.4 59 5.4 E 43 56 23 30 1021.3 1017.6 0.0
20/10:00am 25.8 20.8 18.0 62 5.0 E 41 50 22 27 1021.4 1017.7 0.0
20/09:30am 24.3 19.8 18.2 68 3.9 ESE 39 48 21 26 1021.7 1018.1 0.0
20/09:02am 23.7 19.5 18.8 74 3.2 E 39 50 21 27 1021.7 1018.1 0.0
20/09:00am 23.3 18.5 18.4 74 3.2 E 41 50 22 27 1021.7 1018.1 0.0
20/08:30am 21.4 16.6 18.4 83 1.9 E 41 52 22 28 1021.9 1018.2 0.0
20/08:00am 20.6 16.3 18.7 89 1.2 E 39 48 21 26 1021.9 1018.2 0.0
20/07:30am 19.9 15.7 18.9 94 0.6 E 39 46 21 25 1021.6 1018.0 0.0

Other Formats:

Comma delimited format used in spreadsheet applications
http://www.bom.gov.au/fwo/IDQ60801/IDQ60801.95551.axf

JavaScript Object Notation format (JSON) in row-major order
http://www.bom.gov.au/fwo/IDQ60801/IDQ60801.95551.json